Terminal Aerodrome Forecast
Issued by NWS

Home | Current Version | Previous Version | Text Only | Print | Product List | Glossary On
Versions: 1 2 3 4 5 6 7 8 9 10 11 12
000
FTUS44 KEPZ 212322
TAFDMN
TAF
KDMN 212322Z 2200/2224 25010G17KT P6SM SCT100
     FM220300 28008KT P6SM SCT080 SCT200
     FM221600 25010KT P6SM SCT090 SCT120 SCT250=

USA.gov is the U.S. government's official web portal to all federal, state and local government web resources and services.